Mullan Pass, ID

7:03 PM PST on November 26, 2014 (GMT -0800)
Sandpoint | Change Station
CLOSE
Current Station
Airport
Location: Sandpoint,
Elevation: 2126 ft
Nearby Weather Stations

Elev 2126 ft 48.30 °N, 116.56 °W | Updated 8 minutes ago

Overcast
Overcast
34 °F
Feels Like 34 °F
N
0
Wind Variable Wind from North

Today
High -- | Low -- °F
--% Chance of Precip.
Yesterday
High -- | Low -- °F
Precip. -- in
7:03 AM 3:56 PM
Waxing Crescent, 25% visible
Pressure 30.07 in
Visibility 2.0 miles
Clouds Overcast 300 ft
Dew Point 34 °F
Humidity 100%
Rainfall 0.00 in
Snow Depth Not available.
UV 0 out of 12
Pollen .10 out of 12
Air Quality Not available.
Flu Activity Not available.
METAR KSZT 270255Z AUTO 00000KT 2SM BR OVC003 01/01 A3007 RMK AO2

More Conditions Fewer Conditions

Pressure 30.07 in
Visibility 2.0 miles
Clouds Overcast 300 ft
Dew Point 34 °F
Humidity 100%
Rainfall 0.00 in
Snow Depth Not available.
UV 0 out of 12
Pollen .10 out of 12
Air Quality Not available.
Flu Activity Not available.
METAR KSZT 270255Z AUTO 00000KT 2SM BR OVC003 01/01 A3007 RMK AO2

More Conditions Fewer Conditions

10-Day Weather Forecast

Almanac

Astronomy

Nov. 26, 2014 Rise Set
Actual Time
Civil Twilight
Nautical Twilight
Astronomical Twilight
Moon
Length of Visible Light
Length of Day
Tomorrow will be .
, % of the Moon is Illuminated

Today's Extremes

State Highs State Lows

Community

WunderPhotos

Upload Photos

1,773,949 photos uploaded!

WunderBlogs® & News

Nearby

Air Quality

  Air Quality AQ Index Pollutant
Not available.

Snow Depth

Station Depth Elevation

Earthquake Activity

City Distance Mag. Time & Date
Minimum magnitude displayed is 2.5.

Coastal Water Temperatures

Place Temperature

Nearby Weather Stations